Alto Crest, New Mexico
Current Conditions -  °F | °C
As of 6:55 AM on Saturday 25 Oct 2014 (Local Time) from KSRR Reporting Station
Clear Clear  
Wind Chill: 10°   Ceiling: Unl
Heat Index: 10°   Visibility: 10mi
Dew Point:   Wind: 8mph
Humidity: 50%   Direction: 240°WSW
Pressure: 30.37"   Gusts: NA
Location:  33.3909°N, 105.634°W
Report Text: KSRR 251255Z AUTO 24007KT 10SM CLR 10/00 A3037 RMK AO2
Loading
Personal Weather Stations






























Interactive Weather Map
Tropical Storm Tracking
New forecast layout! Learn more

10-Day Weather Forecast

Advertisements
Track Severe Weather on mobile